sensor_id;sensor_type;location;lat;lon;timestamp;pressure;altitude;pressure_sealevel;temperature;humidity
53522;BME280;39398;48.382;9.802;2022-07-06T00:00:12;94363.13;;;15.57;55.18
53522;BME280;39398;48.382;9.802;2022-07-06T00:01:14;94361.75;;;15.48;55.50
53522;BME280;39398;48.382;9.802;2022-07-06T00:02:30;94363.59;;;15.41;55.79
53522;BME280;39398;48.382;9.802;2022-07-06T00:03:32;94360.34;;;15.45;55.59
53522;BME280;39398;48.382;9.802;2022-07-06T00:04:34;94364.41;;;15.48;55.67
53522;BME280;39398;48.382;9.802;2022-07-06T00:05:35;94363.59;;;15.41;55.96
53522;BME280;39398;48.382;9.802;2022-07-06T00:06:37;94364.25;;;15.36;56.40
53522;BME280;39398;48.382;9.802;2022-07-06T00:07:38;94360.56;;;15.37;55.49
53522;BME280;39398;48.382;9.802;2022-07-06T00:08:40;94365.69;;;15.39;55.70
53522;BME280;39398;48.382;9.802;2022-07-06T00:09:42;94355.47;;;15.29;56.42
53522;BME280;39398;48.382;9.802;2022-07-06T00:10:43;94359.56;;;15.25;56.48
53522;BME280;39398;48.382;9.802;2022-07-06T00:11:46;94364.06;;;15.31;56.44
53522;BME280;39398;48.382;9.802;2022-07-06T00:12:47;94360.41;;;15.25;56.49
53522;BME280;39398;48.382;9.802;2022-07-06T00:13:49;94363.06;;;15.25;57.16
53522;BME280;39398;48.382;9.802;2022-07-06T00:14:51;94363.91;;;15.19;56.83
53522;BME280;39398;48.382;9.802;2022-07-06T00:15:53;94357.75;;;15.19;56.69
53522;BME280;39398;48.382;9.802;2022-07-06T00:16:54;94362.88;;;15.20;56.62
53522;BME280;39398;48.382;9.802;2022-07-06T00:17:56;94359.41;;;15.20;56.55
53522;BME280;39398;48.382;9.802;2022-07-06T00:18:58;94358.59;;;15.19;56.28
53522;BME280;39398;48.382;9.802;2022-07-06T00:19:59;94358.97;;;15.29;55.92
53522;BME280;39398;48.382;9.802;2022-07-06T00:21:01;94362.81;;;15.33;56.26
53522;BME280;39398;48.382;9.802;2022-07-06T00:22:03;94361.38;;;15.31;56.51
53522;BME280;39398;48.382;9.802;2022-07-06T00:23:04;94366.34;;;15.21;57.25
53522;BME280;39398;48.382;9.802;2022-07-06T00:24:06;94363.06;;;15.25;57.09
53522;BME280;39398;48.382;9.802;2022-07-06T00:25:08;94363.50;;;15.22;56.71
53522;BME280;39398;48.382;9.802;2022-07-06T00:26:10;94363.25;;;15.30;55.55
53522;BME280;39398;48.382;9.802;2022-07-06T00:27:13;94352.44;;;15.25;55.21
53522;BME280;39398;48.382;9.802;2022-07-06T00:28:15;94363.25;;;15.24;56.19
53522;BME280;39398;48.382;9.802;2022-07-06T00:29:16;94355.22;;;15.37;55.01
53522;BME280;39398;48.382;9.802;2022-07-06T00:30:18;94361.34;;;15.44;55.26
53522;BME280;39398;48.382;9.802;2022-07-06T00:31:19;94361.97;;;15.40;55.34
53522;BME280;39398;48.382;9.802;2022-07-06T00:32:21;94359.97;;;15.35;55.96
53522;BME280;39398;48.382;9.802;2022-07-06T00:33:23;94362.66;;;15.28;55.95
53522;BME280;39398;48.382;9.802;2022-07-06T00:34:24;94357.00;;;14.92;57.33
53522;BME280;39398;48.382;9.802;2022-07-06T00:35:26;94365.41;;;14.82;58.18
53522;BME280;39398;48.382;9.802;2022-07-06T00:36:27;94359.88;;;14.83;57.48
53522;BME280;39398;48.382;9.802;2022-07-06T00:37:29;94367.22;;;15.01;56.75
53522;BME280;39398;48.382;9.802;2022-07-06T00:38:31;94361.47;;;15.11;56.04
53522;BME280;39398;48.382;9.802;2022-07-06T00:39:32;94360.84;;;15.09;56.67
53522;BME280;39398;48.382;9.802;2022-07-06T00:40:34;94367.81;;;15.10;56.82
53522;BME280;39398;48.382;9.802;2022-07-06T00:41:36;94362.50;;;15.10;56.47
53522;BME280;39398;48.382;9.802;2022-07-06T00:42:43;94361.47;;;15.11;56.32
53522;BME280;39398;48.382;9.802;2022-07-06T00:43:49;94366.00;;;14.97;57.58
53522;BME280;39398;48.382;9.802;2022-07-06T00:44:51;94367.22;;;14.88;58.28
53522;BME280;39398;48.382;9.802;2022-07-06T00:45:52;94364.78;;;14.67;58.81
53522;BME280;39398;48.382;9.802;2022-07-06T00:46:54;94366.63;;;14.79;58.20
53522;BME280;39398;48.382;9.802;2022-07-06T00:47:56;94353.53;;;14.84;57.60
53522;BME280;39398;48.382;9.802;2022-07-06T00:48:57;94355.78;;;14.68;58.66
53522;BME280;39398;48.382;9.802;2022-07-06T00:49:59;94363.16;;;14.79;58.39
53522;BME280;39398;48.382;9.802;2022-07-06T00:51:01;94352.50;;;14.85;58.18
53522;BME280;39398;48.382;9.802;2022-07-06T00:52:03;94353.72;;;14.83;58.55
53522;BME280;39398;48.382;9.802;2022-07-06T00:53:06;94357.22;;;14.83;58.64
53522;BME280;39398;48.382;9.802;2022-07-06T00:54:08;94361.13;;;14.81;58.93
53522;BME280;39398;48.382;9.802;2022-07-06T00:55:10;94355.81;;;14.81;58.48
53522;BME280;39398;48.382;9.802;2022-07-06T00:56:13;94359.44;;;14.86;58.33
53522;BME280;39398;48.382;9.802;2022-07-06T00:57:15;94353.56;;;14.78;58.79
53522;BME280;39398;48.382;9.802;2022-07-06T00:58:19;94350.66;;;14.86;58.00
53522;BME280;39398;48.382;9.802;2022-07-06T00:59:22;94358.06;;;14.84;58.77
53522;BME280;39398;48.382;9.802;2022-07-06T01:00:26;94348.84;;;14.73;58.72
53522;BME280;39398;48.382;9.802;2022-07-06T01:01:28;94352.72;;;14.71;59.54
53522;BME280;39398;48.382;9.802;2022-07-06T01:02:30;94352.31;;;14.80;58.25
53522;BME280;39398;48.382;9.802;2022-07-06T01:03:32;94347.84;;;14.74;59.09
53522;BME280;39398;48.382;9.802;2022-07-06T01:04:33;94339.47;;;14.57;59.80
53522;BME280;39398;48.382;9.802;2022-07-06T01:05:35;94353.16;;;14.54;60.21
53522;BME280;39398;48.382;9.802;2022-07-06T01:06:37;94347.25;;;14.59;59.50
53522;BME280;39398;48.382;9.802;2022-07-06T01:07:40;94344.38;;;14.60;59.51
53522;BME280;39398;48.382;9.802;2022-07-06T01:08:42;94353.97;;;14.61;59.58
53522;BME280;39398;48.382;9.802;2022-07-06T01:09:44;94346.44;;;14.52;60.15
53522;BME280;39398;48.382;9.802;2022-07-06T01:10:45;94348.22;;;14.38;60.51
53522;BME280;39398;48.382;9.802;2022-07-06T01:11:47;94347.81;;;14.41;60.18
53522;BME280;39398;48.382;9.802;2022-07-06T01:12:49;94338.41;;;14.45;60.15
53522;BME280;39398;48.382;9.802;2022-07-06T01:13:52;94348.22;;;14.45;59.78
53522;BME280;39398;48.382;9.802;2022-07-06T01:14:55;94345.56;;;14.45;60.07
53522;BME280;39398;48.382;9.802;2022-07-06T01:15:57;94345.97;;;14.48;60.27
53522;BME280;39398;48.382;9.802;2022-07-06T01:16:59;94347.63;;;14.42;60.26
53522;BME280;39398;48.382;9.802;2022-07-06T01:18:01;94344.13;;;14.42;60.46
53522;BME280;39398;48.382;9.802;2022-07-06T01:19:08;94342.72;;;14.46;59.83
53522;BME280;39398;48.382;9.802;2022-07-06T01:20:13;94347.22;;;14.46;59.99
53522;BME280;39398;48.382;9.802;2022-07-06T01:21:14;94346.78;;;14.42;60.53
53522;BME280;39398;48.382;9.802;2022-07-06T01:22:16;94346.78;;;14.42;60.24
53522;BME280;39398;48.382;9.802;2022-07-06T01:23:18;94339.44;;;14.44;60.24
53522;BME280;39398;48.382;9.802;2022-07-06T01:24:19;94340.47;;;14.43;60.66
53522;BME280;39398;48.382;9.802;2022-07-06T01:25:21;94343.31;;;14.41;60.55
53522;BME280;39398;48.382;9.802;2022-07-06T01:26:22;94348.22;;;14.31;60.42
53522;BME280;39398;48.382;9.802;2022-07-06T01:27:24;94342.91;;;14.11;61.18
53522;BME280;39398;48.382;9.802;2022-07-06T01:28:26;94336.97;;;14.29;60.53
53522;BME280;39398;48.382;9.802;2022-07-06T01:29:27;94332.50;;;14.30;60.61
53522;BME280;39398;48.382;9.802;2022-07-06T01:30:29;94343.72;;;14.25;60.92
53522;BME280;39398;48.382;9.802;2022-07-06T01:31:30;94330.84;;;14.15;61.31
53522;BME280;39398;48.382;9.802;2022-07-06T01:32:32;94334.53;;;14.08;61.63
53522;BME280;39398;48.382;9.802;2022-07-06T01:33:33;94337.19;;;14.01;61.89
53522;BME280;39398;48.382;9.802;2022-07-06T01:34:35;94338.78;;;13.89;62.22
53522;BME280;39398;48.382;9.802;2022-07-06T01:35:38;94341.47;;;14.02;61.46
53522;BME280;39398;48.382;9.802;2022-07-06T01:36:40;94330.44;;;14.25;60.82
53522;BME280;39398;48.382;9.802;2022-07-06T01:37:42;94335.13;;;14.03;61.39
53522;BME280;39398;48.382;9.802;2022-07-06T01:38:47;94337.38;;;14.06;61.94
53522;BME280;39398;48.382;9.802;2022-07-06T01:39:49;94341.06;;;14.18;61.29
53522;BME280;39398;48.382;9.802;2022-07-06T01:40:52;94337.59;;;14.11;61.35
53522;BME280;39398;48.382;9.802;2022-07-06T01:41:53;94335.53;;;14.00;61.93
53522;BME280;39398;48.382;9.802;2022-07-06T01:42:55;94340.81;;;13.93;61.76
53522;BME280;39398;48.382;9.802;2022-07-06T01:43:56;94334.25;;;13.63;63.45
53522;BME280;39398;48.382;9.802;2022-07-06T01:44:58;94337.72;;;13.70;63.10
53522;BME280;39398;48.382;9.802;2022-07-06T01:45:59;94342.63;;;13.66;63.45
53522;BME280;39398;48.382;9.802;2022-07-06T01:47:01;94331.22;;;13.72;63.29
53522;BME280;39398;48.382;9.802;2022-07-06T01:48:05;94330.59;;;13.77;62.98
53522;BME280;39398;48.382;9.802;2022-07-06T01:49:07;94333.25;;;13.90;62.41
53522;BME280;39398;48.382;9.802;2022-07-06T01:50:08;94335.53;;;13.93;62.31
53522;BME280;39398;48.382;9.802;2022-07-06T01:51:11;94329.59;;;13.85;62.52
53522;BME280;39398;48.382;9.802;2022-07-06T01:52:13;94330.84;;;13.89;62.75
53522;BME280;39398;48.382;9.802;2022-07-06T01:53:15;94338.00;;;13.95;62.38
53522;BME280;39398;48.382;9.802;2022-07-06T01:54:16;94328.97;;;13.69;63.19
53522;BME280;39398;48.382;9.802;2022-07-06T01:55:18;94335.63;;;13.59;63.66
53522;BME280;39398;48.382;9.802;2022-07-06T01:56:19;94329.97;;;13.75;62.82
53522;BME280;39398;48.382;9.802;2022-07-06T01:57:21;94330.19;;;13.80;62.67
53522;BME280;39398;48.382;9.802;2022-07-06T01:58:23;94340.41;;;13.90;62.35
53522;BME280;39398;48.382;9.802;2022-07-06T01:59:25;94335.88;;;13.70;63.40
53522;BME280;39398;48.382;9.802;2022-07-06T02:00:27;94335.50;;;13.73;63.10
53522;BME280;39398;48.382;9.802;2022-07-06T02:01:28;94343.63;;;13.65;63.61
53522;BME280;39398;48.382;9.802;2022-07-06T02:02:30;94338.13;;;13.67;63.60
53522;BME280;39398;48.382;9.802;2022-07-06T02:03:32;94335.06;;;13.70;63.69
53522;BME280;39398;48.382;9.802;2022-07-06T02:04:45;94335.75;;;13.92;62.34
53522;BME280;39398;48.382;9.802;2022-07-06T02:05:47;94334.25;;;13.69;63.71
53522;BME280;39398;48.382;9.802;2022-07-06T02:06:50;94338.94;;;13.67;63.78
53522;BME280;39398;48.382;9.802;2022-07-06T02:07:51;94343.28;;;13.82;62.88
53522;BME280;39398;48.382;9.802;2022-07-06T02:08:53;94340.56;;;13.68;63.53
53522;BME280;39398;48.382;9.802;2022-07-06T02:09:54;94344.84;;;13.63;63.74
53522;BME280;39398;48.382;9.802;2022-07-06T02:10:56;94332.66;;;13.82;62.74
53522;BME280;39398;48.382;9.802;2022-07-06T02:11:58;94340.19;;;13.78;63.07
53522;BME280;39398;48.382;9.802;2022-07-06T02:12:59;94338.31;;;13.65;63.36
53522;BME280;39398;48.382;9.802;2022-07-06T02:14:01;94341.44;;;13.89;62.44
53522;BME280;39398;48.382;9.802;2022-07-06T02:15:02;94330.97;;;13.67;63.20
53522;BME280;39398;48.382;9.802;2022-07-06T02:16:04;94340.00;;;13.80;63.21
53522;BME280;39398;48.382;9.802;2022-07-06T02:17:06;94335.34;;;13.95;62.35
53522;BME280;39398;48.382;9.802;2022-07-06T02:18:07;94334.72;;;14.00;62.37
53522;BME280;39398;48.382;9.802;2022-07-06T02:19:09;94331.63;;;13.83;62.85
53522;BME280;39398;48.382;9.802;2022-07-06T02:20:11;94330.41;;;13.85;62.82
53522;BME280;39398;48.382;9.802;2022-07-06T02:21:13;94331.81;;;13.88;62.92
53522;BME280;39398;48.382;9.802;2022-07-06T02:22:15;94331.59;;;13.63;63.66
53522;BME280;39398;48.382;9.802;2022-07-06T02:23:17;94336.88;;;13.56;64.00
53522;BME280;39398;48.382;9.802;2022-07-06T02:24:19;94335.66;;;13.65;63.82
53522;BME280;39398;48.382;9.802;2022-07-06T02:25:20;94326.28;;;13.56;63.63
53522;BME280;39398;48.382;9.802;2022-07-06T02:26:22;94330.56;;;13.64;63.65
53522;BME280;39398;48.382;9.802;2022-07-06T02:27:23;94333.88;;;13.79;63.29
53522;BME280;39398;48.382;9.802;2022-07-06T02:28:25;94330.75;;;13.62;63.70
53522;BME280;39398;48.382;9.802;2022-07-06T02:29:27;94337.09;;;13.68;63.79
53522;BME280;39398;48.382;9.802;2022-07-06T02:30:28;94335.69;;;13.72;63.49
53522;BME280;39398;48.382;9.802;2022-07-06T02:31:30;94329.34;;;13.60;63.57
53522;BME280;39398;48.382;9.802;2022-07-06T02:32:32;94335.47;;;13.60;63.72
53522;BME280;39398;48.382;9.802;2022-07-06T02:33:33;94340.38;;;13.70;63.59
53522;BME280;39398;48.382;9.802;2022-07-06T02:34:35;94337.50;;;13.65;63.79
53522;BME280;39398;48.382;9.802;2022-07-06T02:35:36;94337.91;;;13.62;64.13
53522;BME280;39398;48.382;9.802;2022-07-06T02:36:38;94338.47;;;13.44;64.88
53522;BME280;39398;48.382;9.802;2022-07-06T02:37:41;94344.22;;;13.54;64.66
53522;BME280;39398;48.382;9.802;2022-07-06T02:38:42;94340.34;;;13.57;64.03
53522;BME280;39398;48.382;9.802;2022-07-06T02:39:44;94340.94;;;13.52;63.91
53522;BME280;39398;48.382;9.802;2022-07-06T02:40:45;94339.50;;;13.49;64.43
53522;BME280;39398;48.382;9.802;2022-07-06T02:41:47;94340.13;;;13.58;64.43
53522;BME280;39398;48.382;9.802;2022-07-06T02:42:48;94349.50;;;13.47;64.70
53522;BME280;39398;48.382;9.802;2022-07-06T02:43:50;94355.84;;;13.53;64.20
53522;BME280;39398;48.382;9.802;2022-07-06T02:44:52;94353.81;;;13.68;63.76
53522;BME280;39398;48.382;9.802;2022-07-06T02:45:54;94349.94;;;13.64;63.46
53522;BME280;39398;48.382;9.802;2022-07-06T02:46:55;94346.31;;;13.79;63.47
53522;BME280;39398;48.382;9.802;2022-07-06T02:47:57;94346.09;;;13.73;63.61
53522;BME280;39398;48.382;9.802;2022-07-06T02:48:58;94344.84;;;13.63;63.96
53522;BME280;39398;48.382;9.802;2022-07-06T02:50:00;94345.25;;;13.53;64.54
53522;BME280;39398;48.382;9.802;2022-07-06T02:51:04;94348.50;;;13.62;63.94
53522;BME280;39398;48.382;9.802;2022-07-06T02:52:05;94343.78;;;13.51;64.76
53522;BME280;39398;48.382;9.802;2022-07-06T02:53:08;94349.22;;;13.36;65.24
53522;BME280;39398;48.382;9.802;2022-07-06T02:54:10;94348.69;;;13.54;64.53
53522;BME280;39398;48.382;9.802;2022-07-06T02:55:11;94353.78;;;13.55;64.54
53522;BME280;39398;48.382;9.802;2022-07-06T02:56:13;94349.69;;;13.46;65.08
53522;BME280;39398;48.382;9.802;2022-07-06T02:57:15;94343.16;;;13.48;64.45
53522;BME280;39398;48.382;9.802;2022-07-06T02:58:16;94353.19;;;13.53;64.71
53522;BME280;39398;48.382;9.802;2022-07-06T02:59:18;94351.31;;;13.40;64.94
53522;BME280;39398;48.382;9.802;2022-07-06T03:00:19;94352.06;;;13.28;65.45
53522;BME280;39398;48.382;9.802;2022-07-06T03:01:21;94349.22;;;13.36;65.34
53522;BME280;39398;48.382;9.802;2022-07-06T03:02:23;94350.91;;;13.43;64.77
53522;BME280;39398;48.382;9.802;2022-07-06T03:03:24;94335.97;;;13.29;65.39
53522;BME280;39398;48.382;9.802;2022-07-06T03:04:26;94346.03;;;13.47;64.66
53522;BME280;39398;48.382;9.802;2022-07-06T03:05:27;94351.16;;;13.55;64.15
53522;BME280;39398;48.382;9.802;2022-07-06T03:06:29;94359.53;;;13.65;63.72
53522;BME280;39398;48.382;9.802;2022-07-06T03:07:31;94348.28;;;13.50;64.12
53522;BME280;39398;48.382;9.802;2022-07-06T03:08:33;94355.22;;;13.51;64.31
53522;BME280;39398;48.382;9.802;2022-07-06T03:09:35;94349.88;;;13.38;64.60
53522;BME280;39398;48.382;9.802;2022-07-06T03:10:37;94357.97;;;13.30;65.37
53522;BME280;39398;48.382;9.802;2022-07-06T03:11:38;94346.72;;;13.21;65.97
53522;BME280;39398;48.382;9.802;2022-07-06T03:12:40;94354.66;;;13.21;65.52
53522;BME280;39398;48.382;9.802;2022-07-06T03:13:42;94362.16;;;13.17;66.02
53522;BME280;39398;48.382;9.802;2022-07-06T03:14:43;94355.78;;;13.40;64.88
53522;BME280;39398;48.382;9.802;2022-07-06T03:15:45;94356.09;;;13.23;65.31
53522;BME280;39398;48.382;9.802;2022-07-06T03:16:46;94354.97;;;13.39;64.61
53522;BME280;39398;48.382;9.802;2022-07-06T03:17:51;94360.66;;;13.36;64.75
53522;BME280;39398;48.382;9.802;2022-07-06T03:18:53;94358.63;;;13.32;65.00
53522;BME280;39398;48.382;9.802;2022-07-06T03:19:55;94364.41;;;13.14;65.66
53522;BME280;39398;48.382;9.802;2022-07-06T03:20:56;94362.50;;;13.01;66.60
53522;BME280;39398;48.382;9.802;2022-07-06T03:21:58;94363.47;;;12.93;66.51
53522;BME280;39398;48.382;9.802;2022-07-06T03:22:59;94363.53;;;13.00;66.18
53522;BME280;39398;48.382;9.802;2022-07-06T03:24:03;94362.13;;;13.11;65.77
53522;BME280;39398;48.382;9.802;2022-07-06T03:25:04;94365.41;;;13.13;65.61
53522;BME280;39398;48.382;9.802;2022-07-06T03:26:06;94380.88;;;13.02;66.33
53522;BME280;39398;48.382;9.802;2022-07-06T03:27:08;94357.44;;;13.06;65.81
53522;BME280;39398;48.382;9.802;2022-07-06T03:28:09;94360.84;;;12.93;66.63
53522;BME280;39398;48.382;9.802;2022-07-06T03:29:11;94372.31;;;13.07;65.93
53522;BME280;39398;48.382;9.802;2022-07-06T03:30:12;94365.56;;;13.04;65.74
53522;BME280;39398;48.382;9.802;2022-07-06T03:31:15;94370.47;;;13.08;66.12
53522;BME280;39398;48.382;9.802;2022-07-06T03:32:16;94365.31;;;12.93;66.28
53522;BME280;39398;48.382;9.802;2022-07-06T03:33:18;94365.66;;;13.18;65.45
53522;BME280;39398;48.382;9.802;2022-07-06T03:34:20;94372.78;;;13.17;65.04
53522;BME280;39398;48.382;9.802;2022-07-06T03:35:21;94366.19;;;13.07;65.81
53522;BME280;39398;48.382;9.802;2022-07-06T03:36:23;94366.81;;;13.02;65.86
53522;BME280;39398;48.382;9.802;2022-07-06T03:37:24;94375.34;;;13.04;66.42
53522;BME280;39398;48.382;9.802;2022-07-06T03:38:26;94369.81;;;12.92;66.51
53522;BME280;39398;48.382;9.802;2022-07-06T03:39:29;94365.16;;;13.01;66.12
53522;BME280;39398;48.382;9.802;2022-07-06T03:40:30;94368.44;;;13.03;66.07
53522;BME280;39398;48.382;9.802;2022-07-06T03:41:32;94367.69;;;13.16;65.41
53522;BME280;39398;48.382;9.802;2022-07-06T03:42:35;94368.03;;;13.06;66.32
53522;BME280;39398;48.382;9.802;2022-07-06T03:43:37;94371.34;;;12.80;67.24
53522;BME280;39398;48.382;9.802;2022-07-06T03:44:38;94359.72;;;12.81;67.48
53522;BME280;39398;48.382;9.802;2022-07-06T03:45:40;94371.22;;;12.95;66.59
53522;BME280;39398;48.382;9.802;2022-07-06T03:46:41;94369.22;;;12.97;66.34
53522;BME280;39398;48.382;9.802;2022-07-06T03:47:43;94371.53;;;13.13;65.45
53522;BME280;39398;48.382;9.802;2022-07-06T03:48:44;94364.44;;;13.20;65.38
53522;BME280;39398;48.382;9.802;2022-07-06T03:49:46;94361.03;;;13.26;65.39
53522;BME280;39398;48.382;9.802;2022-07-06T03:50:47;94365.88;;;13.23;65.10
53522;BME280;39398;48.382;9.802;2022-07-06T03:51:49;94362.53;;;13.08;65.81
53522;BME280;39398;48.382;9.802;2022-07-06T03:52:50;94361.19;;;13.18;65.89
53522;BME280;39398;48.382;9.802;2022-07-06T03:53:52;94359.31;;;13.12;65.56
53522;BME280;39398;48.382;9.802;2022-07-06T03:54:55;94362.81;;;13.19;65.99
53522;BME280;39398;48.382;9.802;2022-07-06T03:55:57;94365.88;;;13.23;65.99
53522;BME280;39398;48.382;9.802;2022-07-06T03:56:58;94371.31;;;13.08;66.37
53522;BME280;39398;48.382;9.802;2022-07-06T03:58:00;94367.50;;;13.24;65.71
53522;BME280;39398;48.382;9.802;2022-07-06T03:59:06;94371.63;;;12.92;67.10
53522;BME280;39398;48.382;9.802;2022-07-06T04:00:09;94368.56;;;12.95;66.71
53522;BME280;39398;48.382;9.802;2022-07-06T04:01:11;94371.53;;;13.13;66.05
53522;BME280;39398;48.382;9.802;2022-07-06T04:02:12;94373.00;;;13.22;65.55
53522;BME280;39398;48.382;9.802;2022-07-06T04:03:14;94374.97;;;13.07;66.73
53522;BME280;39398;48.382;9.802;2022-07-06T04:04:16;94377.63;;;13.07;66.62
53522;BME280;39398;48.382;9.802;2022-07-06T04:05:17;94371.38;;;13.21;66.30
53522;BME280;39398;48.382;9.802;2022-07-06T04:06:19;94374.44;;;13.18;66.18
53522;BME280;39398;48.382;9.802;2022-07-06T04:07:21;94375.66;;;13.22;66.17
53522;BME280;39398;48.382;9.802;2022-07-06T04:08:22;94373.56;;;13.11;66.66
53522;BME280;39398;48.382;9.802;2022-07-06T04:09:24;94374.78;;;13.09;66.43
53522;BME280;39398;48.382;9.802;2022-07-06T04:10:27;94377.91;;;13.19;66.91
53522;BME280;39398;48.382;9.802;2022-07-06T04:11:29;94378.91;;;13.18;66.53
53522;BME280;39398;48.382;9.802;2022-07-06T04:12:31;94363.09;;;12.96;67.12
53522;BME280;39398;48.382;9.802;2022-07-06T04:13:32;94373.22;;;12.86;68.48
53522;BME280;39398;48.382;9.802;2022-07-06T04:14:34;94377.81;;;13.06;67.56
53522;BME280;39398;48.382;9.802;2022-07-06T04:15:35;94376.06;;;12.85;68.71
53522;BME280;39398;48.382;9.802;2022-07-06T04:16:37;94382.75;;;13.09;67.52
53522;BME280;39398;48.382;9.802;2022-07-06T04:17:39;94377.31;;;12.89;68.52
53522;BME280;39398;48.382;9.802;2022-07-06T04:18:40;94378.78;;;12.98;67.71
53522;BME280;39398;48.382;9.802;2022-07-06T04:19:42;94385.97;;;13.04;67.62
53522;BME280;39398;48.382;9.802;2022-07-06T04:20:43;94382.94;;;13.14;67.58
53522;BME280;39398;48.382;9.802;2022-07-06T04:21:45;94385.56;;;13.07;67.46
53522;BME280;39398;48.382;9.802;2022-07-06T04:23:05;94378.47;;;13.14;66.86
53522;BME280;39398;48.382;9.802;2022-07-06T04:24:06;94386.88;;;13.18;67.16
53522;BME280;39398;48.382;9.802;2022-07-06T04:25:08;94380.22;;;13.29;66.78
53522;BME280;39398;48.382;9.802;2022-07-06T04:26:12;94377.69;;;13.20;67.27
53522;BME280;39398;48.382;9.802;2022-07-06T04:27:13;94372.81;;;13.24;67.14
53522;BME280;39398;48.382;9.802;2022-07-06T04:28:15;94382.47;;;13.32;67.19
53522;BME280;39398;48.382;9.802;2022-07-06T04:29:16;94380.97;;;12.88;69.25
53522;BME280;39398;48.382;9.802;2022-07-06T04:30:18;94383.78;;;13.14;67.96
53522;BME280;39398;48.382;9.802;2022-07-06T04:31:20;94382.13;;;13.13;67.63
53522;BME280;39398;48.382;9.802;2022-07-06T04:32:21;94386.63;;;13.13;67.62
53522;BME280;39398;48.382;9.802;2022-07-06T04:33:26;94375.59;;;13.09;67.58
53522;BME280;39398;48.382;9.802;2022-07-06T04:34:27;94379.06;;;13.10;67.36
53522;BME280;39398;48.382;9.802;2022-07-06T04:35:29;94383.91;;;13.34;66.72
53522;BME280;39398;48.382;9.802;2022-07-06T04:36:30;94384.56;;;13.08;67.82
53522;BME280;39398;48.382;9.802;2022-07-06T04:37:32;94388.72;;;13.24;67.26
53522;BME280;39398;48.382;9.802;2022-07-06T04:38:34;94386.56;;;12.99;68.96
53522;BME280;39398;48.382;9.802;2022-07-06T04:39:35;94388.66;;;13.11;68.28
53522;BME280;39398;48.382;9.802;2022-07-06T04:40:37;94388.00;;;13.02;68.80
53522;BME280;39398;48.382;9.802;2022-07-06T04:41:40;94391.78;;;13.21;67.33
53522;BME280;39398;48.382;9.802;2022-07-06T04:42:41;94383.63;;;13.22;67.73
53522;BME280;39398;48.382;9.802;2022-07-06T04:43:43;94390.81;;;13.29;67.84
53522;BME280;39398;48.382;9.802;2022-07-06T04:44:44;94388.84;;;13.44;66.09
53522;BME280;39398;48.382;9.802;2022-07-06T04:45:46;94378.53;;;13.21;67.76
53522;BME280;39398;48.382;9.802;2022-07-06T04:46:47;94386.59;;;13.41;67.75
53522;BME280;39398;48.382;9.802;2022-07-06T04:47:49;94384.91;;;13.33;66.65
53522;BME280;39398;48.382;9.802;2022-07-06T04:48:50;94391.38;;;13.24;68.32
53522;BME280;39398;48.382;9.802;2022-07-06T04:49:53;94383.84;;;13.21;68.38
53522;BME280;39398;48.382;9.802;2022-07-06T04:50:54;94382.75;;;13.43;67.48
53522;BME280;39398;48.382;9.802;2022-07-06T04:51:56;94392.09;;;13.39;67.29
53522;BME280;39398;48.382;9.802;2022-07-06T04:52:57;94392.78;;;13.55;67.36
53522;BME280;39398;48.382;9.802;2022-07-06T04:53:59;94397.88;;;13.56;66.74
53522;BME280;39398;48.382;9.802;2022-07-06T04:55:01;94398.50;;;13.65;66.56
53522;BME280;39398;48.382;9.802;2022-07-06T04:56:03;94399.16;;;13.73;66.50
53522;BME280;39398;48.382;9.802;2022-07-06T04:57:06;94385.84;;;13.54;66.93
53522;BME280;39398;48.382;9.802;2022-07-06T04:58:13;94391.00;;;13.75;66.41
53522;BME280;39398;48.382;9.802;2022-07-06T04:59:15;94394.50;;;13.82;65.15
53522;BME280;39398;48.382;9.802;2022-07-06T05:00:17;94391.44;;;13.79;66.35
53522;BME280;39398;48.382;9.802;2022-07-06T05:01:19;94395.56;;;13.94;64.71
53522;BME280;39398;48.382;9.802;2022-07-06T05:02:20;94384.13;;;14.01;64.61
53522;BME280;39398;48.382;9.802;2022-07-06T05:03:22;94397.16;;;13.82;66.08
53522;BME280;39398;48.382;9.802;2022-07-06T05:04:23;94392.03;;;13.74;66.12
53522;BME280;39398;48.382;9.802;2022-07-06T05:05:25;94387.63;;;14.01;65.02
53522;BME280;39398;48.382;9.802;2022-07-06T05:06:27;94388.41;;;13.95;64.86
53522;BME280;39398;48.382;9.802;2022-07-06T05:07:28;94386.75;;;13.87;65.21
53522;BME280;39398;48.382;9.802;2022-07-06T05:08:30;94390.25;;;13.94;65.74
53522;BME280;39398;48.382;9.802;2022-07-06T05:09:31;94401.69;;;13.95;65.50
53522;BME280;39398;48.382;9.802;2022-07-06T05:10:33;94387.44;;;14.23;65.10
53522;BME280;39398;48.382;9.802;2022-07-06T05:11:34;94397.63;;;14.06;66.02
53522;BME280;39398;48.382;9.802;2022-07-06T05:12:38;94389.28;;;14.29;65.28
53522;BME280;39398;48.382;9.802;2022-07-06T05:13:39;94398.03;;;14.23;65.95
53522;BME280;39398;48.382;9.802;2022-07-06T05:14:41;94392.16;;;14.34;66.11
53522;BME280;39398;48.382;9.802;2022-07-06T05:15:42;94400.94;;;14.41;67.44
53522;BME280;39398;48.382;9.802;2022-07-06T05:16:44;94398.69;;;14.38;66.95
53522;BME280;39398;48.382;9.802;2022-07-06T05:17:45;94391.97;;;14.49;64.71
53522;BME280;39398;48.382;9.802;2022-07-06T05:18:47;94401.19;;;14.73;63.75
53522;BME280;39398;48.382;9.802;2022-07-06T05:19:50;94400.16;;;14.87;63.01
53522;BME280;39398;48.382;9.802;2022-07-06T05:20:51;94399.34;;;14.53;63.03
53522;BME280;39398;48.382;9.802;2022-07-06T05:21:53;94395.88;;;14.73;64.49
53522;BME280;39398;48.382;9.802;2022-07-06T05:22:55;94399.34;;;14.67;63.27
53522;BME280;39398;48.382;9.802;2022-07-06T05:23:56;94406.28;;;15.01;62.88
53522;BME280;39398;48.382;9.802;2022-07-06T05:24:58;94409.31;;;15.11;62.94
53522;BME280;39398;48.382;9.802;2022-07-06T05:25:59;94409.53;;;14.96;66.04
53522;BME280;39398;48.382;9.802;2022-07-06T05:27:01;94407.31;;;15.00;63.52
53522;BME280;39398;48.382;9.802;2022-07-06T05:28:04;94406.88;;;14.96;65.08